DLH7LL EDDM-EDDF
Flight info
| Callsign | DLH7LL |
|---|---|
| Flight time | 0h 45m |
| Altitude | 24000 |
| Route | GIVMI1N GIVMI Y101 ERNAS T161 DEBHI DEBHI1B |
| Aircraft | A320/M-SDE3FGHIRWY/LB1 |
Departure
| Time | 2026-05-07 18:26 |
|---|---|
| Airport | Munich Airport (EDDM) |
Arrival
| Time | 2026-05-07 19:11 |
|---|---|
| Airport | Frankfurt Main Airport (EDDF) |
| Time | Latitude | Longitude | Altitude | Speed | Heading |
|---|---|---|---|---|---|
| 2026-05-07 17:39 | 48.35366 | 11.79766 | 1478 ft | 0 kts | 83° |
| 2026-05-07 18:13 | 48.35366 | 11.79757 | 1473 ft | 4 kts | 83° |
| 2026-05-07 18:13 | 48.35362 | 11.79717 | 1480 ft | 4 kts | 83° |
| 2026-05-07 18:14 | 48.35359 | 11.79677 | 1475 ft | 4 kts | 83° |
| 2026-05-07 18:14 | 48.35356 | 11.79642 | 1475 ft | 4 kts | 78° |
| 2026-05-07 18:14 | 48.35346 | 11.79614 | 1473 ft | 4 kts | 15° |
| 2026-05-07 18:14 | 48.35320 | 11.79613 | 1476 ft | 4 kts | 352° |
| 2026-05-07 18:15 | 48.35313 | 11.79615 | 1479 ft | 0 kts | 353° |
| 2026-05-07 18:17 | 48.35332 | 11.79606 | 1475 ft | 8 kts | 338° |
| 2026-05-07 18:17 | 48.35375 | 11.79561 | 1482 ft | 7 kts | 321° |
| 2026-05-07 18:17 | 48.35413 | 11.79529 | 1474 ft | 7 kts | 348° |
| 2026-05-07 18:18 | 48.35482 | 11.79517 | 1479 ft | 3 kts | 353° |
| 2026-05-07 18:18 | 48.35498 | 11.79514 | 1485 ft | 4 kts | 354° |
| 2026-05-07 18:18 | 48.35506 | 11.79513 | 1485 ft | 0 kts | 354° |
| 2026-05-07 18:19 | 48.35541 | 11.79507 | 1480 ft | 10 kts | 353° |
| 2026-05-07 18:19 | 48.35594 | 11.79498 | 1481 ft | 5 kts | 354° |
| 2026-05-07 18:19 | 48.35633 | 11.79491 | 1475 ft | 8 kts | 353° |
| 2026-05-07 18:20 | 48.35704 | 11.79479 | 1485 ft | 12 kts | 353° |
| 2026-05-07 18:20 | 48.35791 | 11.79464 | 1475 ft | 13 kts | 353° |
| 2026-05-07 18:20 | 48.35870 | 11.79453 | 1478 ft | 11 kts | 4° |
| 2026-05-07 18:20 | 48.35939 | 11.79500 | 1481 ft | 11 kts | 17° |
| 2026-05-07 18:21 | 48.36015 | 11.79492 | 1479 ft | 11 kts | 353° |
| 2026-05-07 18:21 | 48.36099 | 11.79478 | 1485 ft | 13 kts | 353° |
| 2026-05-07 18:21 | 48.36195 | 11.79476 | 1478 ft | 15 kts | 17° |
| 2026-05-07 18:21 | 48.36224 | 11.79606 | 1476 ft | 14 kts | 86° |
| 2026-05-07 18:22 | 48.36236 | 11.79755 | 1475 ft | 15 kts | 83° |
| 2026-05-07 18:22 | 48.36244 | 11.79858 | 1485 ft | 15 kts | 83° |
| 2026-05-07 18:22 | 48.36261 | 11.80075 | 1485 ft | 17 kts | 83° |
| 2026-05-07 18:22 | 48.36275 | 11.80257 | 1482 ft | 18 kts | 83° |
| 2026-05-07 18:23 | 48.36290 | 11.80457 | 1481 ft | 20 kts | 83° |
| 2026-05-07 18:23 | 48.36307 | 11.80675 | 1481 ft | 22 kts | 84° |
| 2026-05-07 18:23 | 48.36325 | 11.80910 | 1478 ft | 23 kts | 83° |
| 2026-05-07 18:23 | 48.36343 | 11.81139 | 1485 ft | 12 kts | 84° |
| 2026-05-07 18:24 | 48.36383 | 11.81213 | 1480 ft | 11 kts | 5° |
| 2026-05-07 18:24 | 48.36435 | 11.81127 | 1479 ft | 13 kts | 294° |
| 2026-05-07 18:24 | 48.36483 | 11.80957 | 1481 ft | 21 kts | 292° |
| 2026-05-07 18:24 | 48.36542 | 11.80749 | 1477 ft | 22 kts | 293° |
| 2026-05-07 18:25 | 48.36568 | 11.80562 | 1485 ft | 20 kts | 261° |
| 2026-05-07 18:25 | 48.36529 | 11.80043 | 1485 ft | 86 kts | 264° |
| 2026-05-07 18:25 | 48.36437 | 11.78823 | 1479 ft | 146 kts | 262° |
| 2026-05-07 18:25 | 48.36302 | 11.77190 | 1922 ft | 160 kts | 263° |
| 2026-05-07 18:26 | 48.36178 | 11.75535 | 2720 ft | 160 kts | 265° |
| 2026-05-07 18:26 | 48.36052 | 11.73804 | 3215 ft | 176 kts | 265° |
| 2026-05-07 18:26 | 48.35910 | 11.71853 | 3564 ft | 199 kts | 265° |
| 2026-05-07 18:26 | 48.35747 | 11.69658 | 3921 ft | 222 kts | 266° |
| 2026-05-07 18:27 | 48.35975 | 11.67339 | 4667 ft | 233 kts | 293° |
| 2026-05-07 18:27 | 48.36807 | 11.65109 | 5175 ft | 255 kts | 301° |
| 2026-05-07 18:27 | 48.37758 | 11.62801 | 6029 ft | 262 kts | 301° |
| 2026-05-07 18:27 | 48.38733 | 11.60462 | 6998 ft | 265 kts | 301° |
| 2026-05-07 18:28 | 48.39701 | 11.58136 | 7935 ft | 267 kts | 300° |
| 2026-05-07 18:28 | 48.40745 | 11.55808 | 8890 ft | 272 kts | 309° |
| 2026-05-07 18:28 | 48.42285 | 11.54110 | 9786 ft | 281 kts | 332° |
| 2026-05-07 18:28 | 48.44114 | 11.52929 | 10451 ft | 295 kts | 333° |
| 2026-05-07 18:29 | 48.46085 | 11.51681 | 10762 ft | 319 kts | 334° |
| 2026-05-07 18:29 | 48.48181 | 11.50366 | 11318 ft | 331 kts | 334° |
| 2026-05-07 18:29 | 48.50329 | 11.49025 | 12091 ft | 336 kts | 334° |
| 2026-05-07 18:29 | 48.52500 | 11.47664 | 12868 ft | 341 kts | 334° |
| 2026-05-07 18:30 | 48.54699 | 11.46274 | 13662 ft | 345 kts | 334° |
| 2026-05-07 18:30 | 48.56894 | 11.44882 | 14361 ft | 348 kts | 334° |
| 2026-05-07 18:30 | 48.59137 | 11.43458 | 15077 ft | 351 kts | 334° |
| 2026-05-07 18:30 | 48.61397 | 11.42022 | 15802 ft | 354 kts | 334° |
| 2026-05-07 18:31 | 48.63673 | 11.40579 | 16519 ft | 356 kts | 334° |
| 2026-05-07 18:31 | 48.65967 | 11.39123 | 17222 ft | 359 kts | 334° |
| 2026-05-07 18:31 | 48.68181 | 11.37402 | 17896 ft | 358 kts | 321° |
| 2026-05-07 18:31 | 48.70102 | 11.34999 | 18496 ft | 360 kts | 317° |
| 2026-05-07 18:32 | 48.72003 | 11.32513 | 19064 ft | 363 kts | 316° |
| 2026-05-07 18:32 | 48.73917 | 11.29992 | 19649 ft | 366 kts | 316° |
| 2026-05-07 18:32 | 48.75817 | 11.27479 | 20233 ft | 368 kts | 316° |
| 2026-05-07 18:32 | 48.77752 | 11.24916 | 20820 ft | 371 kts | 316° |
| 2026-05-07 18:33 | 48.79702 | 11.22337 | 21383 ft | 373 kts | 316° |
| 2026-05-07 18:33 | 48.81667 | 11.19739 | 21939 ft | 376 kts | 316° |
| 2026-05-07 18:33 | 48.83646 | 11.17118 | 22484 ft | 379 kts | 316° |
| 2026-05-07 18:33 | 48.85639 | 11.14472 | 23017 ft | 382 kts | 316° |
| 2026-05-07 18:34 | 48.87647 | 11.11806 | 23416 ft | 384 kts | 317° |
| 2026-05-07 18:34 | 48.89657 | 11.09138 | 23695 ft | 385 kts | 317° |
| 2026-05-07 18:34 | 48.91651 | 11.06491 | 23922 ft | 386 kts | 317° |
| 2026-05-07 18:34 | 48.93706 | 11.03758 | 24045 ft | 387 kts | 317° |
| 2026-05-07 18:35 | 48.95695 | 11.01109 | 24077 ft | 384 kts | 316° |
| 2026-05-07 18:35 | 48.97702 | 10.98432 | 24078 ft | 383 kts | 316° |
| 2026-05-07 18:35 | 48.99700 | 10.95759 | 24097 ft | 383 kts | 316° |
| 2026-05-07 18:35 | 49.01703 | 10.93074 | 24103 ft | 383 kts | 316° |
| 2026-05-07 18:36 | 49.03701 | 10.90389 | 24096 ft | 384 kts | 316° |
| 2026-05-07 18:36 | 49.05705 | 10.87695 | 24098 ft | 384 kts | 316° |
| 2026-05-07 18:36 | 49.07714 | 10.85000 | 24099 ft | 385 kts | 316° |
| 2026-05-07 18:36 | 49.09721 | 10.82311 | 24099 ft | 384 kts | 316° |
| 2026-05-07 18:37 | 49.11731 | 10.79615 | 24113 ft | 384 kts | 316° |
| 2026-05-07 18:37 | 49.13737 | 10.76916 | 24110 ft | 384 kts | 316° |
| 2026-05-07 18:37 | 49.15744 | 10.74211 | 24110 ft | 384 kts | 316° |
| 2026-05-07 18:37 | 49.17720 | 10.71540 | 24102 ft | 385 kts | 316° |
| 2026-05-07 18:38 | 49.19562 | 10.68598 | 24105 ft | 382 kts | 306° |
| 2026-05-07 18:38 | 49.21199 | 10.65410 | 24109 ft | 382 kts | 306° |
| 2026-05-07 18:38 | 49.22838 | 10.62210 | 24064 ft | 382 kts | 306° |
| 2026-05-07 18:38 | 49.24473 | 10.59005 | 24064 ft | 382 kts | 306° |
| 2026-05-07 18:39 | 49.26105 | 10.55794 | 24064 ft | 382 kts | 306° |
| 2026-05-07 18:39 | 49.27738 | 10.52574 | 24068 ft | 383 kts | 306° |
| 2026-05-07 18:39 | 49.29374 | 10.49344 | 24051 ft | 384 kts | 306° |
| 2026-05-07 18:39 | 49.31011 | 10.46110 | 24050 ft | 385 kts | 306° |
| 2026-05-07 18:40 | 49.32655 | 10.42861 | 24052 ft | 386 kts | 306° |
| 2026-05-07 18:40 | 49.34303 | 10.39608 | 24050 ft | 387 kts | 306° |
| 2026-05-07 18:40 | 49.35931 | 10.36391 | 24061 ft | 387 kts | 306° |
| 2026-05-07 18:40 | 49.37579 | 10.33125 | 24060 ft | 387 kts | 306° |
| 2026-05-07 18:41 | 49.39225 | 10.29858 | 24061 ft | 387 kts | 306° |
| 2026-05-07 18:41 | 49.40869 | 10.26584 | 24063 ft | 387 kts | 306° |
| 2026-05-07 18:41 | 49.42512 | 10.23310 | 24064 ft | 387 kts | 306° |
| 2026-05-07 18:41 | 49.44153 | 10.20038 | 24059 ft | 386 kts | 306° |
| 2026-05-07 18:42 | 49.45796 | 10.16769 | 24056 ft | 386 kts | 306° |
| 2026-05-07 18:42 | 49.47439 | 10.13500 | 24057 ft | 386 kts | 306° |
| 2026-05-07 18:42 | 49.49080 | 10.10228 | 24057 ft | 386 kts | 306° |
| 2026-05-07 18:42 | 49.50711 | 10.06967 | 23961 ft | 382 kts | 306° |
| 2026-05-07 18:43 | 49.52315 | 10.03755 | 23725 ft | 376 kts | 306° |
| 2026-05-07 18:43 | 49.53898 | 10.00581 | 23472 ft | 373 kts | 306° |
| 2026-05-07 18:43 | 49.55459 | 9.97448 | 23197 ft | 373 kts | 306° |
| 2026-05-07 18:43 | 49.57034 | 9.94273 | 22918 ft | 372 kts | 306° |
| 2026-05-07 18:44 | 49.58593 | 9.91123 | 22606 ft | 366 kts | 306° |
| 2026-05-07 18:44 | 49.60123 | 9.88027 | 22177 ft | 361 kts | 306° |
| 2026-05-07 18:44 | 49.61633 | 9.84969 | 21741 ft | 356 kts | 306° |
| 2026-05-07 18:44 | 49.63124 | 9.81949 | 21302 ft | 352 kts | 306° |
| 2026-05-07 18:45 | 49.64606 | 9.78955 | 20858 ft | 349 kts | 306° |
| 2026-05-07 18:45 | 49.66076 | 9.75990 | 20403 ft | 347 kts | 306° |
| 2026-05-07 18:45 | 49.67513 | 9.73080 | 19966 ft | 344 kts | 306° |
| 2026-05-07 18:45 | 49.68955 | 9.70150 | 19515 ft | 343 kts | 306° |
| 2026-05-07 18:46 | 49.70393 | 9.67225 | 19052 ft | 341 kts | 306° |
| 2026-05-07 18:46 | 49.71827 | 9.64312 | 18609 ft | 340 kts | 306° |
| 2026-05-07 18:46 | 49.73254 | 9.61407 | 18130 ft | 339 kts | 306° |
| 2026-05-07 18:46 | 49.74673 | 9.58512 | 17668 ft | 336 kts | 306° |
| 2026-05-07 18:47 | 49.76078 | 9.55641 | 17232 ft | 333 kts | 306° |
| 2026-05-07 18:47 | 49.77472 | 9.52792 | 16794 ft | 331 kts | 306° |
| 2026-05-07 18:47 | 49.78854 | 9.49967 | 16363 ft | 329 kts | 306° |
| 2026-05-07 18:47 | 49.80230 | 9.47151 | 15936 ft | 327 kts | 306° |
| 2026-05-07 18:48 | 49.81599 | 9.44345 | 15526 ft | 326 kts | 306° |
| 2026-05-07 18:48 | 49.82964 | 9.41546 | 15092 ft | 325 kts | 306° |
| 2026-05-07 18:48 | 49.84306 | 9.38793 | 14674 ft | 324 kts | 306° |
| 2026-05-07 18:48 | 49.85624 | 9.35968 | 14253 ft | 323 kts | 301° |
| 2026-05-07 18:49 | 49.86595 | 9.32842 | 13868 ft | 323 kts | 289° |
| 2026-05-07 18:49 | 49.87252 | 9.29500 | 13538 ft | 324 kts | 286° |
| 2026-05-07 18:49 | 49.87893 | 9.26151 | 13207 ft | 324 kts | 286° |
| 2026-05-07 18:49 | 49.88533 | 9.22813 | 12889 ft | 322 kts | 286° |
| 2026-05-07 18:50 | 49.89167 | 9.19495 | 12567 ft | 321 kts | 286° |
| 2026-05-07 18:50 | 49.89798 | 9.16182 | 12246 ft | 320 kts | 286° |
| 2026-05-07 18:50 | 49.90425 | 9.12882 | 11920 ft | 318 kts | 286° |
| 2026-05-07 18:50 | 49.91043 | 9.09638 | 11610 ft | 317 kts | 286° |
| 2026-05-07 18:51 | 49.91666 | 9.06362 | 11295 ft | 316 kts | 286° |
| 2026-05-07 18:51 | 49.92284 | 9.03102 | 11077 ft | 315 kts | 286° |
| 2026-05-07 18:51 | 49.92904 | 8.99843 | 11067 ft | 315 kts | 286° |
| 2026-05-07 18:51 | 49.93526 | 8.96580 | 11066 ft | 315 kts | 286° |
| 2026-05-07 18:52 | 49.94150 | 8.93314 | 11064 ft | 315 kts | 286° |
| 2026-05-07 18:52 | 49.94772 | 8.90048 | 11063 ft | 314 kts | 286° |
| 2026-05-07 18:52 | 49.95374 | 8.86877 | 11062 ft | 298 kts | 286° |
| 2026-05-07 18:52 | 49.95947 | 8.83853 | 11063 ft | 288 kts | 286° |
| 2026-05-07 18:53 | 49.96509 | 8.80883 | 11063 ft | 286 kts | 286° |
| 2026-05-07 18:53 | 49.97070 | 8.77916 | 11056 ft | 286 kts | 286° |
| 2026-05-07 18:53 | 49.97620 | 8.74989 | 11062 ft | 286 kts | 284° |
| 2026-05-07 18:53 | 49.97868 | 8.71940 | 11058 ft | 286 kts | 269° |
| 2026-05-07 18:54 | 49.97567 | 8.68893 | 11063 ft | 287 kts | 253° |
| 2026-05-07 18:54 | 49.96880 | 8.65982 | 11059 ft | 287 kts | 250° |
| 2026-05-07 18:54 | 49.96179 | 8.63078 | 11058 ft | 287 kts | 250° |
| 2026-05-07 18:54 | 49.95480 | 8.60177 | 11056 ft | 287 kts | 250° |
| 2026-05-07 18:55 | 49.94779 | 8.57273 | 11061 ft | 287 kts | 250° |
| 2026-05-07 18:55 | 49.94076 | 8.54368 | 11052 ft | 287 kts | 250° |
| 2026-05-07 18:55 | 49.93374 | 8.51468 | 11058 ft | 287 kts | 250° |
| 2026-05-07 18:55 | 49.92673 | 8.48574 | 11055 ft | 287 kts | 250° |
| 2026-05-07 18:56 | 49.91982 | 8.45707 | 11070 ft | 287 kts | 250° |
| 2026-05-07 18:56 | 49.91284 | 8.42807 | 11064 ft | 287 kts | 250° |
| 2026-05-07 18:56 | 49.90584 | 8.39904 | 11070 ft | 287 kts | 250° |
| 2026-05-07 18:56 | 49.89706 | 8.37021 | 11068 ft | 308 kts | 235° |
| 2026-05-07 18:57 | 49.88110 | 8.34750 | 11072 ft | 317 kts | 211° |
| 2026-05-07 18:57 | 49.86094 | 8.33321 | 11075 ft | 320 kts | 203° |
| 2026-05-07 18:57 | 49.84027 | 8.32040 | 11066 ft | 320 kts | 202° |
| 2026-05-07 18:57 | 49.81980 | 8.30787 | 11066 ft | 310 kts | 202° |
| 2026-05-07 18:58 | 49.80026 | 8.29597 | 11066 ft | 294 kts | 202° |
| 2026-05-07 18:58 | 49.78170 | 8.28472 | 11065 ft | 279 kts | 202° |
| 2026-05-07 18:58 | 49.76432 | 8.27423 | 11061 ft | 265 kts | 203° |
| 2026-05-07 18:58 | 49.74780 | 8.26300 | 10950 ft | 256 kts | 214° |
| 2026-05-07 18:59 | 49.73584 | 8.24361 | 10692 ft | 249 kts | 244° |
| 2026-05-07 18:59 | 49.73194 | 8.21805 | 10389 ft | 246 kts | 274° |
| 2026-05-07 18:59 | 49.73673 | 8.19309 | 9920 ft | 244 kts | 298° |
| 2026-05-07 18:59 | 49.74574 | 8.17082 | 9351 ft | 245 kts | 303° |
| 2026-05-07 19:00 | 49.75532 | 8.14900 | 8939 ft | 244 kts | 304° |
| 2026-05-07 19:00 | 49.76483 | 8.12737 | 8520 ft | 242 kts | 304° |
| 2026-05-07 19:00 | 49.77425 | 8.10590 | 8127 ft | 240 kts | 304° |
| 2026-05-07 19:00 | 49.78357 | 8.08463 | 7715 ft | 238 kts | 303° |
| 2026-05-07 19:01 | 49.79285 | 8.06343 | 7316 ft | 237 kts | 303° |
| 2026-05-07 19:01 | 49.80195 | 8.04266 | 6933 ft | 236 kts | 304° |
| 2026-05-07 19:01 | 49.81112 | 8.02170 | 6618 ft | 234 kts | 303° |
| 2026-05-07 19:01 | 49.82065 | 8.00140 | 6318 ft | 233 kts | 315° |
| 2026-05-07 19:02 | 49.83451 | 7.98927 | 6004 ft | 232 kts | 347° |
| 2026-05-07 19:02 | 49.85043 | 7.99071 | 5656 ft | 233 kts | 20° |
| 2026-05-07 19:02 | 49.86379 | 8.00443 | 5408 ft | 229 kts | 41° |
| 2026-05-07 19:02 | 49.87509 | 8.02106 | 5279 ft | 219 kts | 43° |
| 2026-05-07 19:03 | 49.88574 | 8.03734 | 5144 ft | 211 kts | 44° |
| 2026-05-07 19:03 | 49.89593 | 8.05303 | 5024 ft | 203 kts | 44° |
| 2026-05-07 19:03 | 49.90576 | 8.06822 | 4893 ft | 196 kts | 44° |
| 2026-05-07 19:03 | 49.91505 | 8.08278 | 4784 ft | 187 kts | 47° |
| 2026-05-07 19:04 | 49.92159 | 8.09967 | 4610 ft | 180 kts | 64° |
| 2026-05-07 19:04 | 49.92646 | 8.11751 | 4319 ft | 179 kts | 66° |
| 2026-05-07 19:04 | 49.93099 | 8.13547 | 4078 ft | 178 kts | 67° |
| 2026-05-07 19:04 | 49.93541 | 8.15339 | 4024 ft | 178 kts | 68° |
| 2026-05-07 19:05 | 49.93981 | 8.17136 | 4025 ft | 178 kts | 68° |
| 2026-05-07 19:05 | 49.94419 | 8.18934 | 4026 ft | 178 kts | 68° |
| 2026-05-07 19:05 | 49.94858 | 8.20735 | 4026 ft | 178 kts | 68° |
| 2026-05-07 19:05 | 49.95296 | 8.22537 | 4026 ft | 178 kts | 67° |
| 2026-05-07 19:06 | 49.95735 | 8.24340 | 4024 ft | 178 kts | 67° |
| 2026-05-07 19:06 | 49.96605 | 8.27927 | 3786 ft | 178 kts | 67° |
| 2026-05-07 19:06 | 49.97040 | 8.29721 | 3556 ft | 177 kts | 67° |
| 2026-05-07 19:07 | 49.97471 | 8.31499 | 3334 ft | 176 kts | 68° |
| 2026-05-07 19:07 | 49.97900 | 8.33272 | 3098 ft | 175 kts | 68° |
| 2026-05-07 19:07 | 49.98326 | 8.35030 | 2850 ft | 174 kts | 68° |
| 2026-05-07 19:07 | 49.98749 | 8.36782 | 2620 ft | 173 kts | 68° |
| 2026-05-07 19:08 | 49.99170 | 8.38526 | 2388 ft | 172 kts | 68° |
| 2026-05-07 19:08 | 49.99588 | 8.40257 | 2156 ft | 170 kts | 68° |
| 2026-05-07 19:08 | 50.00002 | 8.41974 | 1920 ft | 168 kts | 68° |
| 2026-05-07 19:08 | 50.00392 | 8.43595 | 1707 ft | 157 kts | 69° |
| 2026-05-07 19:09 | 50.00757 | 8.45112 | 1503 ft | 143 kts | 69° |
| 2026-05-07 19:09 | 50.01095 | 8.46515 | 1311 ft | 135 kts | 69° |
| 2026-05-07 19:09 | 50.01426 | 8.47893 | 1125 ft | 135 kts | 69° |
| 2026-05-07 19:09 | 50.01754 | 8.49241 | 945 ft | 132 kts | 69° |
| 2026-05-07 19:10 | 50.02077 | 8.50564 | 758 ft | 130 kts | 69° |
| 2026-05-07 19:10 | 50.02387 | 8.51862 | 627 ft | 127 kts | 69° |
| 2026-05-07 19:10 | 50.02689 | 8.53141 | 432 ft | 125 kts | 69° |
| 2026-05-07 19:10 | 50.02995 | 8.54384 | 332 ft | 113 kts | 69° |
| 2026-05-07 19:11 | 50.03203 | 8.55282 | 344 ft | 65 kts | 70° |
| 2026-05-07 19:11 | 50.03314 | 8.55671 | 351 ft | 29 kts | 52° |
| 2026-05-07 19:11 | 50.03451 | 8.55878 | 352 ft | 27 kts | 39° |
| 2026-05-07 19:11 | 50.03587 | 8.56054 | 356 ft | 24 kts | 40° |
| 2026-05-07 19:12 | 50.03679 | 8.56253 | 355 ft | 23 kts | 68° |
| 2026-05-07 19:12 | 50.03735 | 8.56491 | 353 ft | 24 kts | 69° |
| 2026-05-07 19:12 | 50.03795 | 8.56738 | 360 ft | 25 kts | 70° |
| 2026-05-07 19:12 | 50.03856 | 8.56990 | 358 ft | 25 kts | 69° |
| 2026-05-07 19:13 | 50.03895 | 8.57156 | 363 ft | 24 kts | 70° |
| 2026-05-07 19:13 | 50.03970 | 8.57472 | 367 ft | 23 kts | 70° |
| 2026-05-07 19:13 | 50.04007 | 8.57633 | 368 ft | 24 kts | 70° |
| 2026-05-07 19:13 | 50.04066 | 8.57877 | 366 ft | 25 kts | 68° |
| 2026-05-07 19:14 | 50.04149 | 8.58139 | 370 ft | 17 kts | 34° |
| 2026-05-07 19:14 | 50.04255 | 8.58207 | 371 ft | 14 kts | 6° |
| 2026-05-07 19:14 | 50.04286 | 8.58201 | 366 ft | 0 kts | 344° |
| 2026-05-07 19:15 | 50.04311 | 8.58186 | 368 ft | 8 kts | 339° |
| 2026-05-07 19:15 | 50.04371 | 8.58152 | 370 ft | 14 kts | 340° |
| 2026-05-07 19:16 | 50.04478 | 8.58092 | 365 ft | 18 kts | 340° |
| 2026-05-07 19:16 | 50.04531 | 8.57970 | 364 ft | 15 kts | 252° |
| 2026-05-07 19:16 | 50.04495 | 8.57826 | 366 ft | 14 kts | 250° |
| 2026-05-07 19:16 | 50.04478 | 8.57751 | 367 ft | 0 kts | 250° |
| 2026-05-07 19:19 | 50.04466 | 8.57702 | 367 ft | 9 kts | 250° |
| 2026-05-07 19:19 | 50.04435 | 8.57571 | 364 ft | 15 kts | 250° |
| 2026-05-07 19:19 | 50.04399 | 8.57418 | 361 ft | 15 kts | 250° |
| 2026-05-07 19:20 | 50.04365 | 8.57275 | 364 ft | 14 kts | 250° |
| 2026-05-07 19:20 | 50.04333 | 8.57143 | 361 ft | 12 kts | 250° |
| 2026-05-07 19:20 | 50.04303 | 8.57016 | 361 ft | 14 kts | 249° |
| 2026-05-07 19:20 | 50.04268 | 8.56873 | 366 ft | 15 kts | 250° |
| 2026-05-07 19:21 | 50.04233 | 8.56720 | 360 ft | 16 kts | 250° |
| 2026-05-07 19:21 | 50.04194 | 8.56559 | 361 ft | 16 kts | 248° |
| 2026-05-07 19:21 | 50.04161 | 8.56419 | 358 ft | 9 kts | 250° |
| 2026-05-07 19:21 | 50.04159 | 8.56414 | 358 ft | 0 kts | 250° |
| 2026-05-07 19:22 | 50.04159 | 8.56413 | 358 ft | 1 kts | 250° |
| 2026-05-07 19:22 | 50.04153 | 8.56385 | 361 ft | 5 kts | 250° |
| 2026-05-07 19:23 | 50.04152 | 8.56300 | 358 ft | 10 kts | 304° |
| 2026-05-07 19:23 | 50.04216 | 8.56254 | 355 ft | 11 kts | 340° |
| 2026-05-07 19:23 | 50.04229 | 8.56247 | 360 ft | 2 kts | 340° |
| 2026-05-07 19:23 | 50.04269 | 8.56223 | 357 ft | 8 kts | 336° |
| 2026-05-07 19:24 | 50.04289 | 8.56149 | 358 ft | 9 kts | 268° |
| 2026-05-07 19:24 | 50.04316 | 8.56071 | 365 ft | 9 kts | 332° |
| 2026-05-07 19:24 | 50.04376 | 8.56035 | 356 ft | 10 kts | 340° |
| 2026-05-07 19:24 | 50.04440 | 8.56069 | 363 ft | 12 kts | 57° |
| 2026-05-07 19:25 | 50.04449 | 8.56101 | 359 ft | 0 kts | 68° |
| 2026-05-07 19:25 | 50.04450 | 8.56117 | 359 ft | 3 kts | 88° |
| 2026-05-07 19:26 | 50.04425 | 8.56142 | 359 ft | 6 kts | 156° |
| 2026-05-07 19:26 | 50.04392 | 8.56166 | 361 ft | 3 kts | 155° |
| 2026-05-07 19:26 | 50.04390 | 8.56168 | 360 ft | 0 kts | 155° |